createdAt,value
2018-02-10T00:00:18.878Z,-2.80
2018-02-10T00:01:46.852Z,-2.82
2018-02-10T00:03:14.013Z,-2.87
2018-02-10T00:04:40.833Z,-2.89
2018-02-10T00:06:06.811Z,-2.87
2018-02-10T00:07:34.807Z,-2.84
2018-02-10T00:09:00.849Z,-2.84
2018-02-10T00:10:28.566Z,-2.84
2018-02-10T00:11:54.615Z,-2.86
2018-02-10T00:13:21.704Z,-2.88
2018-02-10T00:14:49.762Z,-2.87
2018-02-10T00:16:16.634Z,-2.91
2018-02-10T00:17:43.817Z,-2.92
2018-02-10T00:19:10.957Z,-2.88
2018-02-10T00:20:36.903Z,-2.84
2018-02-10T00:22:03.858Z,-2.77
2018-02-10T00:23:31.603Z,-2.73
2018-02-10T00:24:58.181Z,-2.70
2018-02-10T00:26:25.101Z,-2.69
2018-02-10T00:27:52.134Z,-2.67
2018-02-10T00:29:18.943Z,-2.66
2018-02-10T00:30:45.954Z,-2.64
2018-02-10T00:32:12.867Z,-2.59
2018-02-10T00:33:38.723Z,-2.56
2018-02-10T00:35:05.766Z,-2.53
2018-02-10T00:36:32.738Z,-2.46
2018-02-10T00:38:00.526Z,-2.40
2018-02-10T00:39:26.556Z,-2.34
2018-02-10T00:40:53.215Z,-2.28
2018-02-10T00:42:20.785Z,-2.24
2018-02-10T00:43:46.846Z,-2.21
2018-02-10T00:45:14.794Z,-2.19
2018-02-10T00:46:41.815Z,-2.17
2018-02-10T00:48:08.644Z,-2.12
2018-02-10T00:49:35.706Z,-2.10
2018-02-10T00:51:02.578Z,-2.04
2018-02-10T00:52:28.377Z,-2.03
2018-02-10T00:53:55.269Z,-2.02
2018-02-10T00:55:23.237Z,-2.01
2018-02-10T00:56:50.300Z,-1.95
2018-02-10T00:58:17.337Z,-1.95
2018-02-10T00:59:44.609Z,-1.94
2018-02-10T01:01:10.361Z,-1.89
2018-02-10T01:02:37.173Z,-1.85
2018-02-10T01:04:04.068Z,-1.82
2018-02-10T01:05:31.998Z,-1.77
2018-02-10T01:06:58.280Z,-1.72
2018-02-10T01:08:26.394Z,-1.69
2018-02-10T01:09:52.988Z,-1.72
2018-02-10T01:11:18.687Z,-1.71
2018-02-10T01:12:45.847Z,-1.66
2018-02-10T01:14:14.040Z,-1.64
2018-02-10T01:15:41.037Z,-1.68
2018-02-10T01:17:08.045Z,-1.65
2018-02-10T01:18:34.601Z,-1.64
2018-02-10T01:20:01.499Z,-1.64
2018-02-10T01:21:27.213Z,-1.63
2018-02-10T01:22:54.092Z,-1.62
2018-02-10T01:24:21.407Z,-1.59
2018-02-10T01:25:49.293Z,-1.60
2018-02-10T01:27:15.413Z,-1.58
2018-02-10T01:28:43.523Z,-1.60
2018-02-10T01:30:09.495Z,-1.61
2018-02-10T01:31:36.373Z,-1.60
2018-02-10T01:33:04.225Z,-1.59
2018-02-10T01:34:30.273Z,-1.56
2018-02-10T01:35:57.152Z,-1.53
2018-02-10T01:37:24.187Z,-1.50
2018-02-10T01:38:51.403Z,-1.46
2018-02-10T01:40:19.297Z,-1.41
2018-02-10T01:41:46.184Z,-1.36
2018-02-10T01:43:13.131Z,-1.37
2018-02-10T01:44:40.302Z,-1.38
2018-02-10T01:46:07.317Z,-1.40
2018-02-10T01:47:33.459Z,-1.44
2018-02-10T01:49:01.466Z,-1.49
2018-02-10T01:50:27.549Z,-1.49
2018-02-10T01:51:54.450Z,-1.46
2018-02-10T01:53:21.733Z,-1.46
2018-02-10T01:54:49.555Z,-1.48
2018-02-10T01:56:15.499Z,-1.46
2018-02-10T01:57:43.474Z,-1.44
2018-02-10T01:59:10.672Z,-1.43
2018-02-10T02:00:37.604Z,-1.44
2018-02-10T02:02:04.991Z,-1.43
2018-02-10T02:03:31.744Z,-1.39
2018-02-10T02:04:58.779Z,-1.41
2018-02-10T02:06:24.745Z,-1.44
2018-02-10T02:07:52.583Z,-1.46
2018-02-10T02:09:19.581Z,-1.47
2018-02-10T02:10:46.728Z,-1.47
2018-02-10T02:12:13.608Z,-1.46
2018-02-10T02:13:40.029Z,-1.49
2018-02-10T02:15:06.799Z,-1.49
2018-02-10T02:16:34.475Z,-1.45
2018-02-10T02:18:01.480Z,-1.46
2018-02-10T02:19:27.290Z,-1.48
2018-02-10T02:20:55.382Z,-1.50
2018-02-10T02:22:21.469Z,-1.51
2018-02-10T02:23:48.504Z,-1.53
2018-02-10T02:25:16.435Z,-1.56
2018-02-10T02:26:42.391Z,-1.56
2018-02-10T02:28:10.639Z,-1.56
2018-02-10T02:29:36.665Z,-1.56
2018-02-10T02:31:04.548Z,-1.56
2018-02-10T02:32:30.741Z,-1.53
2018-02-10T02:33:58.600Z,-1.48
2018-02-10T02:35:25.459Z,-1.45
2018-02-10T02:36:51.670Z,-1.43
2018-02-10T02:38:21.591Z,-1.40
2018-02-10T02:39:46.367Z,-1.37
2018-02-10T02:41:13.067Z,-1.36
2018-02-10T02:42:40.250Z,-1.38
2018-02-10T02:44:06.062Z,-1.36
2018-02-10T02:45:34.189Z,-1.34
2018-02-10T02:47:00.971Z,-1.31
2018-02-10T02:48:28.318Z,-1.29
2018-02-10T02:49:54.851Z,-1.27
2018-02-10T02:51:21.087Z,-1.27
2018-02-10T02:52:49.066Z,-1.25
2018-02-10T02:54:16.296Z,-1.26
2018-02-10T02:55:43.057Z,-1.26
2018-02-10T02:57:09.169Z,-1.27
2018-02-10T02:58:36.993Z,-1.25
2018-02-10T03:00:03.049Z,-1.18
2018-02-10T03:01:30.873Z,-1.15
2018-02-10T03:02:58.155Z,-1.14
2018-02-10T03:04:24.719Z,-1.16
2018-02-10T03:05:50.821Z,-1.17
2018-02-10T03:07:18.890Z,-1.18
2018-02-10T03:08:45.010Z,-1.12
2018-02-10T03:10:11.909Z,-1.05
2018-02-10T03:11:38.968Z,-1.02
2018-02-10T03:13:06.265Z,-0.97
2018-02-10T03:14:34.281Z,-0.97
2018-02-10T03:16:00.214Z,-0.99
2018-02-10T03:17:27.196Z,-0.97
2018-02-10T03:18:54.352Z,-0.94
2018-02-10T03:20:22.250Z,-0.90
2018-02-10T03:21:49.341Z,-0.93
2018-02-10T03:23:16.512Z,-0.92
2018-02-10T03:24:43.513Z,-0.96
2018-02-10T03:26:10.517Z,-1.00
2018-02-10T03:27:37.437Z,-0.98
2018-02-10T03:29:04.544Z,-0.93
2018-02-10T03:30:31.382Z,-0.88
2018-02-10T03:31:58.659Z,-0.84
2018-02-10T03:33:25.577Z,-0.78
2018-02-10T03:34:52.593Z,-0.74
2018-02-10T03:36:18.457Z,-0.70
2018-02-10T03:37:46.353Z,-0.70
2018-02-10T03:39:12.476Z,-0.80
2018-02-10T03:40:39.526Z,-0.90
2018-02-10T03:42:07.619Z,-0.98
2018-02-10T03:43:34.545Z,-1.03
2018-02-10T03:45:00.725Z,-1.05
2018-02-10T03:46:28.723Z,-1.01
2018-02-10T03:47:54.980Z,-0.98
2018-02-10T03:50:48.483Z,-0.85
2018-02-10T03:52:15.343Z,-0.85
2018-02-10T03:53:43.259Z,-0.88
2018-02-10T03:55:09.329Z,-0.87
2018-02-10T03:56:36.445Z,-0.79
2018-02-10T03:58:04.318Z,-0.86
2018-02-10T03:59:31.519Z,-0.93
2018-02-10T04:00:57.475Z,-1.00
2018-02-10T04:02:24.446Z,-1.07
2018-02-10T04:03:52.431Z,-1.10
2018-02-10T04:05:19.458Z,-1.09
2018-02-10T04:06:46.403Z,-1.11
2018-02-10T04:08:13.593Z,-1.10
2018-02-10T04:09:40.564Z,-1.13
2018-02-10T04:11:06.672Z,-1.18
2018-02-10T04:12:34.648Z,-1.21
2018-02-10T04:14:01.874Z,-1.21
2018-02-10T04:15:28.811Z,-1.18
2018-02-10T04:16:54.796Z,-1.09
2018-02-10T04:18:22.761Z,-0.99
2018-02-10T04:19:49.752Z,-0.91
2018-02-10T04:21:15.820Z,-0.88
2018-02-10T04:22:44.002Z,-0.90
2018-02-10T04:24:11.102Z,-0.94
2018-02-10T04:25:38.088Z,-0.96
2018-02-10T04:27:04.001Z,-0.97
2018-02-10T04:28:32.249Z,-1.01
2018-02-10T04:29:58.302Z,-1.04
2018-02-10T04:31:26.254Z,-1.06
2018-02-10T04:32:53.503Z,-1.03
2018-02-10T04:34:19.577Z,-0.98
2018-02-10T04:35:47.523Z,-0.92
2018-02-10T04:37:14.800Z,-0.85
2018-02-10T04:38:41.909Z,-0.80
2018-02-10T04:40:08.917Z,-0.86
2018-02-10T04:41:34.943Z,-0.93
2018-02-10T04:43:02.773Z,-0.99
2018-02-10T04:44:28.883Z,-1.01
2018-02-10T04:45:56.751Z,-0.92
2018-02-10T04:47:23.946Z,-0.82
2018-02-10T04:48:51.017Z,-0.74
2018-02-10T04:50:18.080Z,-0.66
2018-02-10T04:51:45.045Z,-0.64
2018-02-10T04:53:11.224Z,-0.69
2018-02-10T04:54:39.145Z,-0.72
2018-02-10T04:56:06.031Z,-0.74
2018-02-10T04:57:31.945Z,-0.78
2018-02-10T04:58:59.026Z,-0.83
2018-02-10T05:00:27.171Z,-0.91
2018-02-10T05:01:52.874Z,-0.95
2018-02-10T05:03:19.890Z,-0.98
2018-02-10T05:04:47.936Z,-1.00
2018-02-10T05:06:13.967Z,-0.97
2018-02-10T05:07:42.069Z,-0.91
2018-02-10T05:09:08.248Z,-0.89
2018-02-10T05:10:35.311Z,-0.94
2018-02-10T05:12:03.488Z,-0.97
2018-02-10T05:13:29.390Z,-0.98
2018-02-10T05:14:57.279Z,-1.00
2018-02-10T05:16:23.227Z,-0.99
2018-02-10T05:17:51.415Z,-0.97
2018-02-10T05:19:18.617Z,-0.94
2018-02-10T05:20:45.863Z,-0.94
2018-02-10T05:22:12.807Z,-0.87
2018-02-10T05:23:39.736Z,-0.77
2018-02-10T05:25:05.737Z,-0.74
2018-02-10T05:26:33.783Z,-0.80
2018-02-10T05:28:00.884Z,-0.79
2018-02-10T05:29:27.947Z,-0.80
2018-02-10T05:30:54.958Z,-0.82
2018-02-10T05:32:21.841Z,-0.78
2018-02-10T05:33:47.890Z,-0.73
2018-02-10T05:35:14.975Z,-0.71
2018-02-10T05:36:42.962Z,-0.71
2018-02-10T05:38:09.866Z,-0.74
2018-02-10T05:39:37.073Z,-0.75
2018-02-10T05:41:03.039Z,-0.75
2018-02-10T05:42:29.975Z,-0.77
2018-02-10T05:43:56.958Z,-0.79
2018-02-10T05:45:23.929Z,-0.81
2018-02-10T05:46:50.982Z,-0.80
2018-02-10T05:48:19.396Z,-0.70
2018-02-10T05:49:45.347Z,-0.62
2018-02-10T05:51:13.367Z,-0.58
2018-02-10T05:52:39.437Z,-0.61
2018-02-10T05:54:07.513Z,-0.68
2018-02-10T05:55:34.415Z,-0.74
2018-02-10T05:57:00.242Z,-0.81
2018-02-10T05:58:28.138Z,-0.86
2018-02-10T05:59:54.166Z,-0.87
2018-02-10T06:01:21.994Z,-0.88
2018-02-10T06:02:47.986Z,-0.84
2018-02-10T06:04:15.883Z,-0.84
2018-02-10T06:05:42.054Z,-0.83
2018-02-10T06:07:10.089Z,-0.84
2018-02-10T06:08:37.175Z,-0.85
2018-02-10T06:10:04.181Z,-0.83
2018-02-10T06:11:30.265Z,-0.76
2018-02-10T06:12:57.368Z,-0.70
2018-02-10T06:14:25.443Z,-0.63
2018-02-10T06:15:51.557Z,-0.59
2018-02-10T06:17:18.438Z,-0.59
2018-02-10T06:18:46.313Z,-0.58
2018-02-10T06:20:13.421Z,-0.59
2018-02-10T06:21:40.483Z,-0.59
2018-02-10T06:23:07.524Z,-0.61
2018-02-10T06:24:33.666Z,-0.63
2018-02-10T06:26:00.501Z,-0.62
2018-02-10T06:27:27.460Z,-0.62
2018-02-10T06:28:54.614Z,-0.62
2018-02-10T06:30:21.598Z,-0.62
2018-02-10T06:31:49.745Z,-0.64
2018-02-10T06:33:15.820Z,-0.68
2018-02-10T06:34:43.968Z,-0.73
2018-02-10T06:36:11.067Z,-0.73
2018-02-10T06:37:37.079Z,-0.74
2018-02-10T06:39:05.232Z,-0.76
2018-02-10T06:40:31.182Z,-0.81
2018-02-10T06:41:59.340Z,-0.84
2018-02-10T06:43:25.350Z,-0.85
2018-02-10T06:44:52.652Z,-0.86
2018-02-10T06:46:20.618Z,-0.85
2018-02-10T06:47:46.773Z,-0.88
2018-02-10T06:49:14.946Z,-0.89
2018-02-10T06:50:41.936Z,-0.90
2018-02-10T06:52:07.945Z,-0.91
2018-02-10T06:53:35.967Z,-0.93
2018-02-10T06:55:02.205Z,-0.97
2018-02-10T06:56:30.241Z,-0.98
2018-02-10T06:57:56.173Z,-0.98
2018-02-10T06:59:23.946Z,-0.95
2018-02-10T07:00:50.086Z,-0.98
2018-02-10T07:02:16.829Z,-0.99
2018-02-10T07:03:43.911Z,-1.01
2018-02-10T07:05:11.940Z,-1.03
2018-02-10T07:06:39.168Z,-1.05
2018-02-10T07:08:05.867Z,-1.06
2018-02-10T07:09:33.153Z,-1.09
2018-02-10T07:10:58.896Z,-1.11
2018-02-10T07:12:26.737Z,-1.15
2018-02-10T07:13:52.971Z,-1.15
2018-02-10T07:15:20.759Z,-1.17
2018-02-10T07:16:46.919Z,-1.15
2018-02-10T07:18:14.977Z,-1.15
2018-02-10T07:19:41.092Z,-1.15
2018-02-10T07:21:09.100Z,-1.17
2018-02-10T07:22:36.028Z,-1.18
2018-02-10T07:24:02.143Z,-1.17
2018-02-10T07:25:30.117Z,-1.15
2018-02-10T07:26:55.941Z,-1.16
2018-02-10T07:28:22.739Z,-1.17
2018-02-10T07:29:50.780Z,-1.16
2018-02-10T07:31:17.872Z,-1.16
2018-02-10T07:32:43.775Z,-1.16
2018-02-10T07:34:11.855Z,-1.17
2018-02-10T07:35:37.958Z,-1.17
2018-02-10T07:37:05.185Z,-1.18
2018-02-10T07:38:33.148Z,-1.18
2018-02-10T07:39:59.961Z,-1.18
2018-02-10T07:41:25.988Z,-1.14
2018-02-10T07:42:52.842Z,-1.11
2018-02-10T07:44:19.819Z,-1.09
2018-02-10T07:45:47.742Z,-1.08
2018-02-10T07:47:13.753Z,-1.07
2018-02-10T07:48:41.688Z,-1.05
2018-02-10T07:50:09.002Z,-1.06
2018-02-10T07:51:35.858Z,-1.05
2018-02-10T07:53:02.767Z,-1.06
2018-02-10T07:54:28.721Z,-1.04
2018-02-10T07:55:56.748Z,-1.01
2018-02-10T07:57:24.009Z,-1.00
2018-02-10T07:58:50.066Z,-0.95
2018-02-10T08:00:18.048Z,-0.91
2018-02-10T08:01:44.949Z,-0.90
2018-02-10T08:03:12.100Z,-0.89
2018-02-10T08:04:39.302Z,-0.91
2018-02-10T08:06:06.132Z,-0.91
2018-02-10T08:07:31.602Z,-0.91
2018-02-10T08:08:59.364Z,-0.91
2018-02-10T08:10:26.257Z,-0.91
2018-02-10T08:11:52.392Z,-0.89
2018-02-10T08:13:20.448Z,-0.87
2018-02-10T08:14:47.072Z,-0.88
2018-02-10T08:16:14.422Z,-0.86
2018-02-10T08:17:40.561Z,-0.82
2018-02-10T08:19:07.589Z,-0.77
2018-02-10T08:20:34.473Z,-0.71
2018-02-10T08:22:01.772Z,-0.67
2018-02-10T08:23:28.756Z,-0.61
2018-02-10T08:24:55.724Z,-0.59
2018-02-10T08:26:21.482Z,-0.55
2018-02-10T08:27:48.149Z,-0.54
2018-02-10T08:29:16.132Z,-0.52
2018-02-10T08:30:43.278Z,-0.53
2018-02-10T08:32:10.306Z,-0.55
2018-02-10T08:33:37.360Z,-0.55
2018-02-10T08:35:04.404Z,-0.53
2018-02-10T08:36:31.346Z,-0.52
2018-02-10T08:37:57.333Z,-0.51
2018-02-10T08:39:24.230Z,-0.49
2018-02-10T08:40:52.268Z,-0.46
2018-02-10T08:42:18.376Z,-0.44
2018-02-10T08:43:45.514Z,-0.39
2018-02-10T08:45:13.303Z,-0.34
2018-02-10T08:46:40.392Z,-0.30
2018-02-10T08:48:07.343Z,-0.23
2018-02-10T08:49:34.151Z,-0.22
2018-02-10T08:51:01.429Z,-0.22
2018-02-10T08:52:27.442Z,-0.19
2018-02-10T08:53:54.490Z,-0.19
2018-02-10T08:55:21.636Z,-0.18
2018-02-10T08:56:49.740Z,-0.11
2018-02-10T08:58:15.548Z,-0.10
2018-02-10T08:59:42.477Z,-0.11
2018-02-10T09:01:09.650Z,-0.12
2018-02-10T09:02:36.841Z,-0.07
2018-02-10T09:04:03.834Z,-0.01
2018-02-10T09:05:31.892Z,0.03
2018-02-10T09:06:57.960Z,0.09
2018-02-10T09:08:25.931Z,0.15
2018-02-10T09:09:52.983Z,0.21
2018-02-10T09:11:19.068Z,0.23
2018-02-10T09:12:46.278Z,0.21
2018-02-10T09:14:16.275Z,0.15
2018-02-10T09:15:40.415Z,0.15
2018-02-10T09:17:08.519Z,0.20
2018-02-10T09:18:35.049Z,0.26
2018-02-10T09:20:00.918Z,0.25
2018-02-10T09:21:28.056Z,0.28
2018-02-10T09:22:55.655Z,0.34
2018-02-10T09:24:23.051Z,0.39
2018-02-10T09:25:49.841Z,0.39
2018-02-10T09:27:16.650Z,0.31
2018-02-10T09:28:42.582Z,0.29
2018-02-10T09:30:10.642Z,0.31
2018-02-10T09:31:37.830Z,0.31
2018-02-10T09:33:05.069Z,0.27
2018-02-10T09:34:32.287Z,0.34
2018-02-10T09:35:58.325Z,0.36
2018-02-10T09:37:25.252Z,0.43
2018-02-10T09:38:52.169Z,0.50
2018-02-10T09:40:20.376Z,0.53
2018-02-10T09:41:47.504Z,0.51
2018-02-10T09:43:14.761Z,0.56
2018-02-10T09:44:41.728Z,0.64
2018-02-10T09:46:09.078Z,0.68
2018-02-10T09:47:35.068Z,0.76
2018-02-10T09:49:03.206Z,0.82
2018-02-10T09:50:29.069Z,0.86
2018-02-10T09:51:57.107Z,0.88
2018-02-10T09:53:23.633Z,0.84
2018-02-10T09:54:51.052Z,0.89
2018-02-10T09:56:17.258Z,0.92
2018-02-10T09:57:44.470Z,0.99
2018-02-10T09:59:11.343Z,1.03
2018-02-10T10:00:39.457Z,1.07
2018-02-10T10:02:05.244Z,1.12
2018-02-10T10:03:33.225Z,1.17
2018-02-10T10:05:00.507Z,1.22
2018-02-10T10:06:27.721Z,1.26
2018-02-10T10:07:53.822Z,1.23
2018-02-10T10:09:20.941Z,1.19
2018-02-10T10:10:49.132Z,1.16
2018-02-10T10:12:16.434Z,1.17
2018-02-10T10:13:43.164Z,1.17
2018-02-10T10:15:09.242Z,1.20
2018-02-10T10:16:37.444Z,1.24
2018-02-10T10:18:04.611Z,1.28
2018-02-10T10:19:31.588Z,1.32
2018-02-10T10:20:57.505Z,1.34
2018-02-10T10:22:24.502Z,1.37
2018-02-10T10:23:51.554Z,1.42
2018-02-10T10:25:18.628Z,1.47
2018-02-10T10:26:46.808Z,1.50
2018-02-10T10:28:13.820Z,1.53
2018-02-10T10:29:39.894Z,1.56
2018-02-10T10:31:07.929Z,1.61
2018-02-10T10:32:34.102Z,1.65
2018-02-10T10:34:01.675Z,1.68
2018-02-10T10:35:27.760Z,1.72
2018-02-10T10:36:54.993Z,1.72
2018-02-10T10:38:23.276Z,1.73
2018-02-10T10:39:49.217Z,1.69
2018-02-10T10:41:16.161Z,1.68
2018-02-10T10:42:44.432Z,1.63
2018-02-10T10:44:10.300Z,1.55
2018-02-10T10:45:37.410Z,1.56
2018-02-10T10:47:05.321Z,1.63
2018-02-10T10:48:32.365Z,1.70
2018-02-10T10:49:59.553Z,1.78
2018-02-10T10:51:26.763Z,1.79
2018-02-10T10:52:53.919Z,1.86
2018-02-10T10:54:21.241Z,1.93
2018-02-10T10:55:48.506Z,1.99
2018-02-10T10:57:14.037Z,2.02
2018-02-10T10:58:42.219Z,2.06
2018-02-10T11:00:09.171Z,2.08
2018-02-10T11:01:36.533Z,2.11
2018-02-10T11:03:03.343Z,2.14
2018-02-10T11:04:30.268Z,2.17
2018-02-10T11:05:56.431Z,2.19
2018-02-10T11:07:23.363Z,2.24
2018-02-10T11:08:51.530Z,2.29
2018-02-10T11:10:17.836Z,2.33
2018-02-10T11:11:44.793Z,2.38
2018-02-10T11:13:13.119Z,2.42
2018-02-10T11:14:40.444Z,2.46
2018-02-10T11:16:07.053Z,2.51
2018-02-10T11:17:33.283Z,2.55
2018-02-10T11:19:01.471Z,2.55
2018-02-10T11:20:28.400Z,2.50
2018-02-10T11:21:54.430Z,2.41
2018-02-10T11:23:22.684Z,2.44
2018-02-10T11:24:49.909Z,2.50
2018-02-10T11:26:16.887Z,2.54
2018-02-10T11:27:42.396Z,2.59
2018-02-10T11:29:09.648Z,2.62
2018-02-10T11:30:37.942Z,2.65
2018-02-10T11:32:03.979Z,2.68
2018-02-10T11:33:31.137Z,2.71
2018-02-10T11:34:59.354Z,2.78
2018-02-10T11:36:25.294Z,2.85
2018-02-10T11:37:52.522Z,2.92
2018-02-10T11:39:19.802Z,2.99
2018-02-10T11:40:47.933Z,3.06
2018-02-10T11:42:15.110Z,3.10
2018-02-10T11:43:41.250Z,3.18
2018-02-10T11:45:09.056Z,3.25
2018-02-10T11:46:35.053Z,3.32
2018-02-10T11:48:02.187Z,3.39
2018-02-10T11:49:30.483Z,3.45
2018-02-10T11:50:56.120Z,3.48
2018-02-10T11:52:24.144Z,3.51
2018-02-10T11:53:50.371Z,3.44
2018-02-10T11:55:17.580Z,3.29
2018-02-10T11:56:45.695Z,3.27
2018-02-10T11:58:11.967Z,3.25
2018-02-10T11:59:39.167Z,3.24
2018-02-10T12:01:06.321Z,3.22
2018-02-10T12:02:34.499Z,3.19
2018-02-10T12:04:00.971Z,3.20
2018-02-10T12:05:28.923Z,3.23
2018-02-10T12:06:56.078Z,3.25
2018-02-10T12:08:22.199Z,3.14
2018-02-10T12:09:48.921Z,3.16
2018-02-10T12:11:17.112Z,3.19
2018-02-10T12:12:44.221Z,3.24
2018-02-10T12:14:11.404Z,3.30
2018-02-10T12:15:38.437Z,3.33
2018-02-10T12:17:04.654Z,3.35
2018-02-10T12:18:31.755Z,3.38
2018-02-10T12:19:59.779Z,3.41
2018-02-10T12:21:26.719Z,3.45
2018-02-10T12:22:53.964Z,3.49
2018-02-10T12:24:20.604Z,3.51
2018-02-10T12:25:46.891Z,3.52
2018-02-10T12:27:14.191Z,3.37
2018-02-10T12:28:42.110Z,3.37
2018-02-10T12:30:14.464Z,3.44
2018-02-10T12:31:35.636Z,3.39
2018-02-10T12:33:03.553Z,3.46
2018-02-10T12:34:30.755Z,3.60
2018-02-10T12:35:57.792Z,3.68
2018-02-10T12:37:24.942Z,3.83
2018-02-10T12:38:51.162Z,3.95
2018-02-10T12:40:19.323Z,3.90
2018-02-10T12:41:46.620Z,3.96
2018-02-10T12:43:12.975Z,4.08
2018-02-10T12:44:40.781Z,4.17
2018-02-10T12:46:07.130Z,4.27
2018-02-10T12:47:34.840Z,4.40
2018-02-10T12:49:01.104Z,4.46
2018-02-10T12:50:29.147Z,4.37
2018-02-10T12:51:55.160Z,4.39
2018-02-10T12:53:23.407Z,4.45
2018-02-10T12:54:49.679Z,4.49
2018-02-10T12:56:17.828Z,4.55
2018-02-10T12:57:43.893Z,4.52
2018-02-10T12:59:12.176Z,4.54
2018-02-10T13:00:38.397Z,4.57
2018-02-10T13:02:05.669Z,4.61
2018-02-10T13:03:33.824Z,4.60
2018-02-10T13:05:00.062Z,4.62
2018-02-10T13:06:28.194Z,4.62
2018-02-10T13:07:54.263Z,4.62
2018-02-10T13:09:21.351Z,4.61
2018-02-10T13:10:48.490Z,4.60
2018-02-10T13:12:15.872Z,4.62
2018-02-10T13:13:44.177Z,4.61
2018-02-10T13:15:10.533Z,4.59
2018-02-10T13:16:38.302Z,4.59
2018-02-10T13:18:04.578Z,4.59
2018-02-10T13:19:31.615Z,4.55
2018-02-10T13:20:58.907Z,4.52
2018-02-10T13:22:27.065Z,4.57
2018-02-10T13:23:53.208Z,4.64
2018-02-10T13:25:20.416Z,4.69
2018-02-10T13:26:47.466Z,4.74
2018-02-10T13:28:14.565Z,4.74
2018-02-10T13:29:41.827Z,4.77
2018-02-10T13:31:08.766Z,4.81
2018-02-10T13:32:36.767Z,4.86
2018-02-10T13:34:03.129Z,4.91
2018-02-10T13:35:30.225Z,4.95
2018-02-10T13:36:57.535Z,4.96
2018-02-10T13:38:24.343Z,4.96
2018-02-10T13:39:52.686Z,4.98
2018-02-10T13:41:19.900Z,4.94
2018-02-10T13:42:45.507Z,4.92
2018-02-10T13:44:12.715Z,4.90
2018-02-10T13:45:40.957Z,4.90
2018-02-10T13:47:08.121Z,4.91
2018-02-10T13:48:33.803Z,4.88
2018-02-10T13:50:00.914Z,4.85
2018-02-10T13:51:28.942Z,4.83
2018-02-10T13:52:54.981Z,4.84
2018-02-10T13:54:23.279Z,4.84
2018-02-10T13:55:50.531Z,4.83
2018-02-10T13:57:16.761Z,4.82
2018-02-10T13:58:43.987Z,4.80
2018-02-10T14:00:10.505Z,4.76
2018-02-10T14:01:37.801Z,4.71
2018-02-10T14:03:04.962Z,4.66
2018-02-10T14:04:32.927Z,4.60
2018-02-10T14:05:59.808Z,4.57
2018-02-10T14:07:26.886Z,4.54
2018-02-10T14:08:53.064Z,4.51
2018-02-10T14:10:20.155Z,4.50
2018-02-10T14:11:47.388Z,4.44
2018-02-10T14:13:15.606Z,4.43
2018-02-10T14:14:41.931Z,4.42
2018-02-10T14:16:09.202Z,4.40
2018-02-10T14:17:36.374Z,4.37
2018-02-10T14:19:03.647Z,4.35
2018-02-10T14:20:30.806Z,4.33
2018-02-10T14:21:58.716Z,4.27
2018-02-10T14:23:24.673Z,4.23
2018-02-10T14:24:52.976Z,4.19
2018-02-10T14:26:20.178Z,4.15
2018-02-10T14:27:47.442Z,4.12
2018-02-10T14:29:14.480Z,4.07
2018-02-10T14:30:51.386Z,3.97
2018-02-10T14:32:17.356Z,3.95
2018-02-10T14:33:44.659Z,3.94
2018-02-10T14:35:11.980Z,3.94
2018-02-10T14:36:39.994Z,3.91
2018-02-10T14:38:06.181Z,3.90
2018-02-10T14:39:33.358Z,3.88
2018-02-10T14:41:00.640Z,3.85
2018-02-10T14:42:27.531Z,3.84
2018-02-10T14:43:54.506Z,3.82
2018-02-10T14:45:22.745Z,3.81
2018-02-10T14:46:49.987Z,3.79
2018-02-10T14:48:17.152Z,3.76
2018-02-10T14:49:44.470Z,3.72
2018-02-10T14:51:10.821Z,3.69
2018-02-10T14:52:38.914Z,3.64
2018-02-10T14:54:05.808Z,3.60
2018-02-10T14:55:32.944Z,3.58
2018-02-10T14:56:59.042Z,3.57
2018-02-10T14:58:25.977Z,3.56
2018-02-10T14:59:53.175Z,3.56
2018-02-10T15:01:21.467Z,3.52
2018-02-10T15:02:47.475Z,3.50
2018-02-10T15:04:14.344Z,3.48
2018-02-10T15:05:42.646Z,3.47
2018-02-10T15:07:08.719Z,3.46
2018-02-10T15:08:36.996Z,3.38
2018-02-10T15:10:04.272Z,3.30
2018-02-10T15:11:31.364Z,3.26
2018-02-10T15:12:58.700Z,3.24
2018-02-10T15:14:25.595Z,3.22
2018-02-10T15:15:52.835Z,3.20
2018-02-10T15:17:20.078Z,3.18
2018-02-10T15:18:46.137Z,3.16
2018-02-10T15:20:14.361Z,3.07
2018-02-10T15:21:40.554Z,2.98
2018-02-10T15:23:08.287Z,2.88
2018-02-10T15:24:34.288Z,2.83
2018-02-10T15:26:01.144Z,2.82
2018-02-10T15:27:29.088Z,2.82
2018-02-10T15:28:56.182Z,2.80
2018-02-10T15:30:22.427Z,2.79
2018-02-10T15:31:49.649Z,2.77
2018-02-10T15:33:16.968Z,2.77
2018-02-10T15:34:45.177Z,2.74
2018-02-10T15:36:11.470Z,2.67
2018-02-10T15:37:38.697Z,2.65
2018-02-10T15:39:06.831Z,2.61
2018-02-10T15:40:34.051Z,2.60
2018-02-10T15:42:00.340Z,2.59
2018-02-10T15:43:28.367Z,2.58
2018-02-10T15:44:54.543Z,2.56
2018-02-10T15:46:21.806Z,2.54
2018-02-10T15:47:48.897Z,2.52
2018-02-10T15:49:16.913Z,2.47
2018-02-10T15:50:44.232Z,2.36
2018-02-10T15:52:11.389Z,2.25
2018-02-10T15:53:37.379Z,2.14
2018-02-10T15:55:04.328Z,2.06
2018-02-10T15:56:32.349Z,2.00
2018-02-10T15:57:59.439Z,1.93
2018-02-10T15:59:26.528Z,1.91
2018-02-10T16:00:53.562Z,1.88
2018-02-10T16:02:20.491Z,1.85
2018-02-10T16:03:46.747Z,1.83
2018-02-10T16:05:13.966Z,1.82
2018-02-10T16:06:41.098Z,1.77
2018-02-10T16:08:08.422Z,1.72
2018-02-10T16:09:36.334Z,1.67
2018-02-10T16:11:03.564Z,1.61
2018-02-10T16:12:30.507Z,1.57
2018-02-10T16:13:57.687Z,1.53
2018-02-10T16:15:24.847Z,1.49
2018-02-10T16:16:50.802Z,1.49
2018-02-10T16:18:17.768Z,1.49
2018-02-10T16:19:44.758Z,1.50
2018-02-10T16:21:11.684Z,1.48
2018-02-10T16:22:39.831Z,1.45
2018-02-10T16:24:07.963Z,1.43
2018-02-10T16:25:33.186Z,1.42
2018-02-10T16:27:00.297Z,1.40
2018-02-10T16:28:27.245Z,1.42
2018-02-10T16:29:54.320Z,1.44
2018-02-10T16:31:22.378Z,1.46
2018-02-10T16:32:49.613Z,1.46
2018-02-10T16:34:16.791Z,1.48
2018-02-10T16:35:42.938Z,1.48
2018-02-10T16:37:10.086Z,1.42
2018-02-10T16:38:37.210Z,1.36
2018-02-10T16:40:05.206Z,1.32
2018-02-10T16:41:31.220Z,1.28
2018-02-10T16:42:58.393Z,1.25
2018-02-10T16:44:25.450Z,1.22
2018-02-10T16:45:53.453Z,1.18
2018-02-10T16:47:20.646Z,1.12
2018-02-10T16:48:47.713Z,1.05
2018-02-10T16:50:14.539Z,0.99
2018-02-10T16:51:41.623Z,0.92
2018-02-10T16:53:08.535Z,0.88
2018-02-10T16:54:35.598Z,0.84
2018-02-10T16:56:01.770Z,0.83
2018-02-10T16:57:30.144Z,0.82
2018-02-10T16:58:56.333Z,0.83
2018-02-10T17:00:24.401Z,0.82
2018-02-10T17:01:51.486Z,0.82
2018-02-10T17:03:18.290Z,0.82
2018-02-10T17:04:45.150Z,0.81
2018-02-10T17:06:12.348Z,0.78
2018-02-10T17:07:39.400Z,0.76
2018-02-10T17:09:06.131Z,0.73
2018-02-10T17:10:32.280Z,0.69
2018-02-10T17:11:59.386Z,0.66
2018-02-10T17:13:27.566Z,0.61
2018-02-10T17:14:54.601Z,0.56
2018-02-10T17:16:20.607Z,0.52
2018-02-10T17:17:48.595Z,0.50
2018-02-10T17:19:14.716Z,0.47
2018-02-10T17:20:42.831Z,0.45
2018-02-10T17:22:09.856Z,0.46
2018-02-10T17:23:35.810Z,0.46
2018-02-10T17:25:03.789Z,0.43
2018-02-10T17:26:29.899Z,0.44
2018-02-10T17:27:56.833Z,0.46
2018-02-10T17:29:24.069Z,0.48
2018-02-10T17:30:52.137Z,0.50
2018-02-10T17:32:18.427Z,0.51
2018-02-10T17:33:46.309Z,0.53
2018-02-10T17:35:12.392Z,0.57
2018-02-10T17:36:39.414Z,0.60
2018-02-10T17:38:06.232Z,0.65
2018-02-10T17:39:34.340Z,0.69
2018-02-10T17:41:01.445Z,0.71
2018-02-10T17:42:28.480Z,0.73
2018-02-10T17:43:55.695Z,0.76
2018-02-10T17:45:21.761Z,0.77
2018-02-10T17:46:49.894Z,0.77
2018-02-10T17:48:17.098Z,0.71
2018-02-10T17:49:44.113Z,0.66
2018-02-10T17:51:11.038Z,0.62
2018-02-10T17:52:38.248Z,0.62
2018-02-10T17:54:05.398Z,0.61
2018-02-10T17:55:32.562Z,0.58
2018-02-10T17:56:59.731Z,0.58
2018-02-10T17:58:25.948Z,0.59
2018-02-10T17:59:53.857Z,0.59
2018-02-10T18:01:21.045Z,0.59
2018-02-10T18:02:47.946Z,0.57
2018-02-10T18:04:14.803Z,0.56
2018-02-10T18:05:41.024Z,0.50
2018-02-10T18:07:07.921Z,0.40
2018-02-10T18:08:36.180Z,0.33
2018-02-10T18:10:02.449Z,0.25
2018-02-10T18:11:29.448Z,0.15
2018-02-10T18:12:57.651Z,0.12
2018-02-10T18:14:24.456Z,0.11
2018-02-10T18:15:51.540Z,0.10
2018-02-10T18:17:18.785Z,0.07
2018-02-10T18:18:45.580Z,0.07
2018-02-10T18:20:12.750Z,0.08
2018-02-10T18:21:38.463Z,0.07
2018-02-10T18:23:06.381Z,0.04
2018-02-10T18:24:33.444Z,0.02
2018-02-10T18:25:59.558Z,0.00
2018-02-10T18:27:26.660Z,-0.03
2018-02-10T18:28:53.841Z,-0.03
2018-02-10T18:30:21.977Z,-0.05
2018-02-10T18:31:48.043Z,-0.09
2018-02-10T18:33:16.240Z,-0.12
2018-02-10T18:34:43.123Z,-0.12
2018-02-10T18:36:10.045Z,-0.08
2018-02-10T18:37:36.030Z,-0.07
2018-02-10T18:39:04.339Z,-0.05
2018-02-10T18:40:30.599Z,-0.06
2018-02-10T18:41:57.682Z,-0.07
2018-02-10T18:43:25.802Z,-0.07
2018-02-10T18:44:53.000Z,-0.08
2018-02-10T18:46:20.205Z,-0.08
2018-02-10T18:47:47.260Z,-0.11
2018-02-10T18:49:12.919Z,-0.12
2018-02-10T18:50:40.930Z,-0.14
2018-02-10T18:52:07.908Z,-0.15
2018-02-10T18:53:33.878Z,-0.14
2018-02-10T18:55:00.965Z,-0.12
2018-02-10T18:56:28.005Z,-0.10
2018-02-10T18:57:56.057Z,-0.10
2018-02-10T18:59:23.091Z,-0.10
2018-02-10T19:00:50.236Z,-0.11